sensor_id;sensor_type;location;lat;lon;timestamp;P1;durP1;ratioP1;P2;durP2;ratioP2
64857;SDS011;51335;51.148;6.950;2023-12-20T00:00:08;19.02;;;12.50;;
64857;SDS011;51335;51.148;6.950;2023-12-20T00:00:38;17.65;;;11.80;;
64857;SDS011;51335;51.148;6.950;2023-12-20T00:01:09;20.88;;;12.35;;
64857;SDS011;51335;51.148;6.950;2023-12-20T00:01:39;17.35;;;11.07;;
64857;SDS011;51335;51.148;6.950;2023-12-20T00:02:09;16.20;;;11.18;;
64857;SDS011;51335;51.148;6.950;2023-12-20T00:02:39;16.08;;;11.10;;
64857;SDS011;51335;51.148;6.950;2023-12-20T00:03:10;16.85;;;11.30;;
64857;SDS011;51335;51.148;6.950;2023-12-20T00:03:40;19.08;;;10.55;;
64857;SDS011;51335;51.148;6.950;2023-12-20T00:04:10;17.55;;;11.13;;
64857;SDS011;51335;51.148;6.950;2023-12-20T00:04:41;15.35;;;8.63;;
64857;SDS011;51335;51.148;6.950;2023-12-20T00:05:11;11.43;;;8.18;;
64857;SDS011;51335;51.148;6.950;2023-12-20T00:05:41;11.35;;;6.50;;
64857;SDS011;51335;51.148;6.950;2023-12-20T00:06:11;8.30;;;5.53;;
64857;SDS011;51335;51.148;6.950;2023-12-20T00:06:42;9.80;;;5.30;;
64857;SDS011;51335;51.148;6.950;2023-12-20T00:07:12;6.90;;;5.45;;
64857;SDS011;51335;51.148;6.950;2023-12-20T00:07:42;8.63;;;5.00;;
64857;SDS011;51335;51.148;6.950;2023-12-20T00:08:13;6.72;;;4.57;;
64857;SDS011;51335;51.148;6.950;2023-12-20T00:08:43;7.63;;;4.32;;
64857;SDS011;51335;51.148;6.950;2023-12-20T00:09:13;9.20;;;4.78;;
64857;SDS011;51335;51.148;6.950;2023-12-20T00:09:44;9.68;;;5.05;;
64857;SDS011;51335;51.148;6.950;2023-12-20T00:10:14;9.23;;;4.93;;
64857;SDS011;51335;51.148;6.950;2023-12-20T00:10:44;9.23;;;5.32;;
64857;SDS011;51335;51.148;6.950;2023-12-20T00:11:14;11.05;;;5.50;;
64857;SDS011;51335;51.148;6.950;2023-12-20T00:11:45;7.18;;;5.32;;
64857;SDS011;51335;51.148;6.950;2023-12-20T00:12:15;10.02;;;5.47;;
64857;SDS011;51335;51.148;6.950;2023-12-20T00:12:45;10.40;;;4.97;;
64857;SDS011;51335;51.148;6.950;2023-12-20T00:13:16;11.38;;;5.38;;
64857;SDS011;51335;51.148;6.950;2023-12-20T00:13:46;9.73;;;5.32;;
64857;SDS011;51335;51.148;6.950;2023-12-20T00:14:16;10.25;;;5.38;;
64857;SDS011;51335;51.148;6.950;2023-12-20T00:14:46;10.43;;;5.15;;
64857;SDS011;51335;51.148;6.950;2023-12-20T00:15:17;7.07;;;4.88;;
64857;SDS011;51335;51.148;6.950;2023-12-20T00:15:47;9.48;;;5.38;;
64857;SDS011;51335;51.148;6.950;2023-12-20T00:16:17;12.43;;;4.93;;
64857;SDS011;51335;51.148;6.950;2023-12-20T00:16:47;6.38;;;4.25;;
64857;SDS011;51335;51.148;6.950;2023-12-20T00:17:18;8.90;;;4.10;;
64857;SDS011;51335;51.148;6.950;2023-12-20T00:17:48;10.10;;;4.03;;
64857;SDS011;51335;51.148;6.950;2023-12-20T00:18:18;7.80;;;4.05;;
64857;SDS011;51335;51.148;6.950;2023-12-20T00:18:49;8.38;;;4.40;;
64857;SDS011;51335;51.148;6.950;2023-12-20T00:19:19;8.65;;;4.30;;
64857;SDS011;51335;51.148;6.950;2023-12-20T00:19:49;8.10;;;4.20;;
64857;SDS011;51335;51.148;6.950;2023-12-20T00:20:19;10.13;;;4.47;;
64857;SDS011;51335;51.148;6.950;2023-12-20T00:20:50;8.13;;;4.50;;
64857;SDS011;51335;51.148;6.950;2023-12-20T00:21:20;8.82;;;3.85;;
64857;SDS011;51335;51.148;6.950;2023-12-20T00:21:50;7.47;;;3.75;;
64857;SDS011;51335;51.148;6.950;2023-12-20T00:22:20;11.65;;;4.13;;
64857;SDS011;51335;51.148;6.950;2023-12-20T00:22:51;10.05;;;4.10;;
64857;SDS011;51335;51.148;6.950;2023-12-20T00:23:21;8.02;;;4.00;;
64857;SDS011;51335;51.148;6.950;2023-12-20T00:23:51;9.95;;;3.88;;
64857;SDS011;51335;51.148;6.950;2023-12-20T00:24:21;6.60;;;3.72;;
64857;SDS011;51335;51.148;6.950;2023-12-20T00:24:52;8.40;;;3.63;;
64857;SDS011;51335;51.148;6.950;2023-12-20T00:25:22;8.20;;;3.58;;
64857;SDS011;51335;51.148;6.950;2023-12-20T00:25:52;9.20;;;4.05;;
64857;SDS011;51335;51.148;6.950;2023-12-20T00:26:22;9.48;;;3.95;;
64857;SDS011;51335;51.148;6.950;2023-12-20T00:26:53;7.65;;;3.70;;
64857;SDS011;51335;51.148;6.950;2023-12-20T00:27:23;8.95;;;3.83;;
64857;SDS011;51335;51.148;6.950;2023-12-20T00:27:53;6.63;;;3.40;;
64857;SDS011;51335;51.148;6.950;2023-12-20T00:28:23;7.82;;;3.60;;
64857;SDS011;51335;51.148;6.950;2023-12-20T00:28:54;8.13;;;3.47;;
64857;SDS011;51335;51.148;6.950;2023-12-20T00:29:24;9.57;;;3.55;;
64857;SDS011;51335;51.148;6.950;2023-12-20T00:29:54;7.00;;;3.50;;
64857;SDS011;51335;51.148;6.950;2023-12-20T00:30:24;6.57;;;3.83;;
64857;SDS011;51335;51.148;6.950;2023-12-20T00:30:55;7.45;;;3.35;;
64857;SDS011;51335;51.148;6.950;2023-12-20T00:31:25;8.40;;;3.60;;
64857;SDS011;51335;51.148;6.950;2023-12-20T00:31:55;9.48;;;3.58;;
64857;SDS011;51335;51.148;6.950;2023-12-20T00:32:25;7.82;;;3.33;;
64857;SDS011;51335;51.148;6.950;2023-12-20T00:32:56;6.75;;;3.03;;
64857;SDS011;51335;51.148;6.950;2023-12-20T00:33:26;10.18;;;3.60;;
64857;SDS011;51335;51.148;6.950;2023-12-20T00:33:56;6.30;;;3.17;;
64857;SDS011;51335;51.148;6.950;2023-12-20T00:34:27;6.50;;;3.10;;
64857;SDS011;51335;51.148;6.950;2023-12-20T00:34:57;7.55;;;3.63;;
64857;SDS011;51335;51.148;6.950;2023-12-20T00:35:27;9.57;;;3.30;;
64857;SDS011;51335;51.148;6.950;2023-12-20T00:35:57;6.57;;;3.63;;
64857;SDS011;51335;51.148;6.950;2023-12-20T00:36:28;9.00;;;3.30;;
64857;SDS011;51335;51.148;6.950;2023-12-20T00:36:58;7.93;;;3.47;;
64857;SDS011;51335;51.148;6.950;2023-12-20T00:37:28;4.70;;;3.15;;
64857;SDS011;51335;51.148;6.950;2023-12-20T00:37:58;9.00;;;3.58;;
64857;SDS011;51335;51.148;6.950;2023-12-20T00:38:29;6.53;;;3.67;;
64857;SDS011;51335;51.148;6.950;2023-12-20T00:38:59;7.55;;;3.47;;
64857;SDS011;51335;51.148;6.950;2023-12-20T00:39:29;7.60;;;3.40;;
64857;SDS011;51335;51.148;6.950;2023-12-20T00:39:59;8.88;;;3.80;;
64857;SDS011;51335;51.148;6.950;2023-12-20T00:40:30;10.63;;;3.50;;
64857;SDS011;51335;51.148;6.950;2023-12-20T00:41:00;5.35;;;3.53;;
64857;SDS011;51335;51.148;6.950;2023-12-20T00:41:30;8.68;;;3.78;;
64857;SDS011;51335;51.148;6.950;2023-12-20T00:42:01;10.93;;;3.60;;
64857;SDS011;51335;51.148;6.950;2023-12-20T00:42:31;7.57;;;3.67;;
64857;SDS011;51335;51.148;6.950;2023-12-20T00:43:02;9.48;;;3.50;;
64857;SDS011;51335;51.148;6.950;2023-12-20T00:43:32;8.00;;;3.67;;
64857;SDS011;51335;51.148;6.950;2023-12-20T00:44:02;7.95;;;3.80;;
64857;SDS011;51335;51.148;6.950;2023-12-20T00:44:33;7.63;;;3.70;;
64857;SDS011;51335;51.148;6.950;2023-12-20T00:45:03;8.18;;;3.50;;
64857;SDS011;51335;51.148;6.950;2023-12-20T00:45:34;8.48;;;3.90;;
64857;SDS011;51335;51.148;6.950;2023-12-20T00:46:04;15.18;;;4.15;;
64857;SDS011;51335;51.148;6.950;2023-12-20T00:46:34;11.55;;;4.00;;
64857;SDS011;51335;51.148;6.950;2023-12-20T00:47:05;8.48;;;3.78;;
64857;SDS011;51335;51.148;6.950;2023-12-20T00:47:35;9.85;;;4.10;;
64857;SDS011;51335;51.148;6.950;2023-12-20T00:48:05;9.40;;;3.83;;
64857;SDS011;51335;51.148;6.950;2023-12-20T00:48:36;9.23;;;3.95;;
64857;SDS011;51335;51.148;6.950;2023-12-20T00:49:06;7.90;;;4.15;;
64857;SDS011;51335;51.148;6.950;2023-12-20T00:49:36;7.75;;;3.80;;
64857;SDS011;51335;51.148;6.950;2023-12-20T00:50:07;8.88;;;3.78;;
64857;SDS011;51335;51.148;6.950;2023-12-20T00:50:37;8.07;;;3.88;;
64857;SDS011;51335;51.148;6.950;2023-12-20T00:51:07;8.23;;;4.20;;
64857;SDS011;51335;51.148;6.950;2023-12-20T00:51:38;11.65;;;3.90;;
64857;SDS011;51335;51.148;6.950;2023-12-20T00:52:08;10.70;;;4.18;;
64857;SDS011;51335;51.148;6.950;2023-12-20T00:52:38;9.98;;;4.05;;
64857;SDS011;51335;51.148;6.950;2023-12-20T00:53:08;8.77;;;4.22;;
64857;SDS011;51335;51.148;6.950;2023-12-20T00:53:39;8.65;;;4.03;;
64857;SDS011;51335;51.148;6.950;2023-12-20T00:54:09;7.47;;;3.92;;
64857;SDS011;51335;51.148;6.950;2023-12-20T00:54:39;7.88;;;4.00;;
64857;SDS011;51335;51.148;6.950;2023-12-20T00:55:09;9.82;;;4.10;;
64857;SDS011;51335;51.148;6.950;2023-12-20T00:55:40;9.57;;;3.55;;
64857;SDS011;51335;51.148;6.950;2023-12-20T00:56:10;7.75;;;3.72;;
64857;SDS011;51335;51.148;6.950;2023-12-20T00:56:40;13.40;;;4.38;;
64857;SDS011;51335;51.148;6.950;2023-12-20T00:57:10;8.15;;;4.60;;
64857;SDS011;51335;51.148;6.950;2023-12-20T00:57:41;9.75;;;3.67;;
64857;SDS011;51335;51.148;6.950;2023-12-20T00:58:11;8.52;;;3.75;;
64857;SDS011;51335;51.148;6.950;2023-12-20T00:58:41;9.18;;;4.38;;
64857;SDS011;51335;51.148;6.950;2023-12-20T00:59:12;10.25;;;4.25;;
64857;SDS011;51335;51.148;6.950;2023-12-20T00:59:42;9.73;;;4.20;;
64857;SDS011;51335;51.148;6.950;2023-12-20T01:00:12;7.32;;;4.00;;
64857;SDS011;51335;51.148;6.950;2023-12-20T01:00:43;10.30;;;4.70;;
64857;SDS011;51335;51.148;6.950;2023-12-20T01:01:13;10.27;;;4.38;;
64857;SDS011;51335;51.148;6.950;2023-12-20T01:01:43;9.10;;;4.68;;
64857;SDS011;51335;51.148;6.950;2023-12-20T01:02:14;8.32;;;4.55;;
64857;SDS011;51335;51.148;6.950;2023-12-20T01:02:44;12.43;;;4.88;;
64857;SDS011;51335;51.148;6.950;2023-12-20T01:03:14;8.85;;;4.32;;
64857;SDS011;51335;51.148;6.950;2023-12-20T01:03:44;12.18;;;4.85;;
64857;SDS011;51335;51.148;6.950;2023-12-20T01:04:15;9.70;;;4.95;;
64857;SDS011;51335;51.148;6.950;2023-12-20T01:04:45;11.20;;;4.68;;
64857;SDS011;51335;51.148;6.950;2023-12-20T01:05:15;8.60;;;4.80;;
64857;SDS011;51335;51.148;6.950;2023-12-20T01:05:46;10.77;;;4.72;;
64857;SDS011;51335;51.148;6.950;2023-12-20T01:06:16;9.85;;;4.57;;
64857;SDS011;51335;51.148;6.950;2023-12-20T01:06:46;11.48;;;4.95;;
64857;SDS011;51335;51.148;6.950;2023-12-20T01:07:17;12.57;;;5.15;;
64857;SDS011;51335;51.148;6.950;2023-12-20T01:07:47;11.93;;;4.78;;
64857;SDS011;51335;51.148;6.950;2023-12-20T01:08:17;13.15;;;5.28;;
64857;SDS011;51335;51.148;6.950;2023-12-20T01:08:47;11.95;;;4.88;;
64857;SDS011;51335;51.148;6.950;2023-12-20T01:09:18;10.32;;;5.03;;
64857;SDS011;51335;51.148;6.950;2023-12-20T01:09:48;10.10;;;5.35;;
64857;SDS011;51335;51.148;6.950;2023-12-20T01:10:18;11.77;;;4.80;;
64857;SDS011;51335;51.148;6.950;2023-12-20T01:10:48;8.40;;;4.93;;
64857;SDS011;51335;51.148;6.950;2023-12-20T01:11:19;9.65;;;5.10;;
64857;SDS011;51335;51.148;6.950;2023-12-20T01:11:49;12.75;;;5.00;;
64857;SDS011;51335;51.148;6.950;2023-12-20T01:12:19;9.13;;;4.68;;
64857;SDS011;51335;51.148;6.950;2023-12-20T01:12:50;9.43;;;4.75;;
64857;SDS011;51335;51.148;6.950;2023-12-20T01:13:20;9.93;;;5.07;;
64857;SDS011;51335;51.148;6.950;2023-12-20T01:13:50;10.80;;;4.80;;
64857;SDS011;51335;51.148;6.950;2023-12-20T01:14:20;10.85;;;4.55;;
64857;SDS011;51335;51.148;6.950;2023-12-20T01:14:51;11.05;;;5.05;;
64857;SDS011;51335;51.148;6.950;2023-12-20T01:15:21;12.15;;;5.03;;
64857;SDS011;51335;51.148;6.950;2023-12-20T01:15:51;13.15;;;5.38;;
64857;SDS011;51335;51.148;6.950;2023-12-20T01:16:21;11.27;;;5.22;;
64857;SDS011;51335;51.148;6.950;2023-12-20T01:16:52;11.63;;;5.45;;
64857;SDS011;51335;51.148;6.950;2023-12-20T01:17:22;7.97;;;5.03;;
64857;SDS011;51335;51.148;6.950;2023-12-20T01:17:52;13.00;;;5.40;;
64857;SDS011;51335;51.148;6.950;2023-12-20T01:18:22;12.77;;;5.40;;
64857;SDS011;51335;51.148;6.950;2023-12-20T01:18:53;10.82;;;5.13;;
64857;SDS011;51335;51.148;6.950;2023-12-20T01:19:24;13.10;;;5.18;;
64857;SDS011;51335;51.148;6.950;2023-12-20T01:19:55;12.25;;;5.30;;
64857;SDS011;51335;51.148;6.950;2023-12-20T01:20:25;10.88;;;5.40;;
64857;SDS011;51335;51.148;6.950;2023-12-20T01:20:55;11.32;;;5.03;;
64857;SDS011;51335;51.148;6.950;2023-12-20T01:21:25;9.43;;;5.35;;
64857;SDS011;51335;51.148;6.950;2023-12-20T01:21:56;9.13;;;5.00;;
64857;SDS011;51335;51.148;6.950;2023-12-20T01:22:26;10.02;;;5.43;;
64857;SDS011;51335;51.148;6.950;2023-12-20T01:22:56;11.57;;;5.57;;
64857;SDS011;51335;51.148;6.950;2023-12-20T01:23:27;12.55;;;5.45;;
64857;SDS011;51335;51.148;6.950;2023-12-20T01:23:57;14.10;;;5.60;;
64857;SDS011;51335;51.148;6.950;2023-12-20T01:24:27;12.88;;;5.43;;
64857;SDS011;51335;51.148;6.950;2023-12-20T01:24:57;13.30;;;6.05;;
64857;SDS011;51335;51.148;6.950;2023-12-20T01:25:28;10.98;;;5.55;;
64857;SDS011;51335;51.148;6.950;2023-12-20T01:25:58;15.45;;;5.95;;
64857;SDS011;51335;51.148;6.950;2023-12-20T01:26:29;11.23;;;5.70;;
64857;SDS011;51335;51.148;6.950;2023-12-20T01:26:59;12.50;;;6.00;;
64857;SDS011;51335;51.148;6.950;2023-12-20T01:27:29;11.90;;;5.93;;
64857;SDS011;51335;51.148;6.950;2023-12-20T01:27:59;11.48;;;5.93;;
64857;SDS011;51335;51.148;6.950;2023-12-20T01:28:30;12.88;;;5.88;;
64857;SDS011;51335;51.148;6.950;2023-12-20T01:29:00;10.32;;;5.75;;
64857;SDS011;51335;51.148;6.950;2023-12-20T01:29:30;13.48;;;6.40;;
64857;SDS011;51335;51.148;6.950;2023-12-20T01:30:00;15.50;;;6.70;;
64857;SDS011;51335;51.148;6.950;2023-12-20T01:30:31;12.88;;;6.63;;
64857;SDS011;51335;51.148;6.950;2023-12-20T01:31:01;13.50;;;7.15;;
64857;SDS011;51335;51.148;6.950;2023-12-20T01:31:31;12.48;;;6.50;;
64857;SDS011;51335;51.148;6.950;2023-12-20T01:32:01;11.38;;;6.68;;
64857;SDS011;51335;51.148;6.950;2023-12-20T01:32:32;12.35;;;6.50;;
64857;SDS011;51335;51.148;6.950;2023-12-20T01:33:02;10.38;;;6.75;;
64857;SDS011;51335;51.148;6.950;2023-12-20T01:33:32;12.85;;;6.47;;
64857;SDS011;51335;51.148;6.950;2023-12-20T01:34:03;16.20;;;6.82;;
64857;SDS011;51335;51.148;6.950;2023-12-20T01:34:33;14.90;;;7.10;;
64857;SDS011;51335;51.148;6.950;2023-12-20T01:35:03;12.82;;;7.03;;
64857;SDS011;51335;51.148;6.950;2023-12-20T01:35:34;13.57;;;7.35;;
64857;SDS011;51335;51.148;6.950;2023-12-20T01:36:04;17.70;;;7.35;;
64857;SDS011;51335;51.148;6.950;2023-12-20T01:36:34;15.27;;;6.93;;
64857;SDS011;51335;51.148;6.950;2023-12-20T01:37:05;14.32;;;6.93;;
64857;SDS011;51335;51.148;6.950;2023-12-20T01:37:35;14.25;;;6.75;;
64857;SDS011;51335;51.148;6.950;2023-12-20T01:38:05;15.80;;;7.13;;
64857;SDS011;51335;51.148;6.950;2023-12-20T01:38:35;15.30;;;7.53;;
64857;SDS011;51335;51.148;6.950;2023-12-20T01:39:06;15.35;;;7.32;;
64857;SDS011;51335;51.148;6.950;2023-12-20T01:39:36;13.27;;;7.43;;
64857;SDS011;51335;51.148;6.950;2023-12-20T01:40:06;12.07;;;7.38;;
64857;SDS011;51335;51.148;6.950;2023-12-20T01:40:37;19.13;;;7.70;;
64857;SDS011;51335;51.148;6.950;2023-12-20T01:41:07;15.10;;;7.95;;
64857;SDS011;51335;51.148;6.950;2023-12-20T01:41:37;15.15;;;7.47;;
64857;SDS011;51335;51.148;6.950;2023-12-20T01:42:08;19.80;;;8.52;;
64857;SDS011;51335;51.148;6.950;2023-12-20T01:42:38;18.83;;;8.13;;
64857;SDS011;51335;51.148;6.950;2023-12-20T01:43:08;22.77;;;7.78;;
64857;SDS011;51335;51.148;6.950;2023-12-20T01:43:38;18.52;;;7.63;;
64857;SDS011;51335;51.148;6.950;2023-12-20T01:44:09;19.08;;;9.18;;
64857;SDS011;51335;51.148;6.950;2023-12-20T01:44:39;17.27;;;8.05;;
64857;SDS011;51335;51.148;6.950;2023-12-20T01:45:09;15.40;;;8.80;;
64857;SDS011;51335;51.148;6.950;2023-12-20T01:45:40;16.95;;;8.27;;
64857;SDS011;51335;51.148;6.950;2023-12-20T01:46:10;18.27;;;8.30;;
64857;SDS011;51335;51.148;6.950;2023-12-20T01:46:41;16.50;;;8.93;;
64857;SDS011;51335;51.148;6.950;2023-12-20T01:47:11;16.58;;;8.52;;
64857;SDS011;51335;51.148;6.950;2023-12-20T01:47:42;16.48;;;9.00;;
64857;SDS011;51335;51.148;6.950;2023-12-20T01:48:15;16.13;;;8.93;;
64857;SDS011;51335;51.148;6.950;2023-12-20T01:48:47;18.00;;;8.63;;
64857;SDS011;51335;51.148;6.950;2023-12-20T01:49:18;15.15;;;8.98;;
64857;SDS011;51335;51.148;6.950;2023-12-20T01:49:48;18.42;;;8.73;;
64857;SDS011;51335;51.148;6.950;2023-12-20T01:50:19;18.25;;;8.60;;
64857;SDS011;51335;51.148;6.950;2023-12-20T01:50:51;15.77;;;8.02;;
64857;SDS011;51335;51.148;6.950;2023-12-20T01:51:21;20.58;;;8.73;;
64857;SDS011;51335;51.148;6.950;2023-12-20T01:51:52;20.17;;;9.80;;
64857;SDS011;51335;51.148;6.950;2023-12-20T01:52:22;16.83;;;9.50;;
64857;SDS011;51335;51.148;6.950;2023-12-20T01:52:53;14.70;;;9.38;;
64857;SDS011;51335;51.148;6.950;2023-12-20T01:53:25;17.67;;;9.50;;
64857;SDS011;51335;51.148;6.950;2023-12-20T01:53:57;16.95;;;9.88;;
64857;SDS011;51335;51.148;6.950;2023-12-20T01:54:28;16.30;;;9.80;;
64857;SDS011;51335;51.148;6.950;2023-12-20T01:54:59;15.20;;;9.52;;
64857;SDS011;51335;51.148;6.950;2023-12-20T01:55:29;17.30;;;9.98;;
64857;SDS011;51335;51.148;6.950;2023-12-20T01:56:03;15.57;;;9.50;;
64857;SDS011;51335;51.148;6.950;2023-12-20T01:56:34;21.33;;;10.82;;
64857;SDS011;51335;51.148;6.950;2023-12-20T01:57:04;23.02;;;10.38;;
64857;SDS011;51335;51.148;6.950;2023-12-20T01:57:36;19.77;;;10.18;;
64857;SDS011;51335;51.148;6.950;2023-12-20T01:58:07;15.50;;;9.70;;
64857;SDS011;51335;51.148;6.950;2023-12-20T01:58:39;21.15;;;10.48;;
64857;SDS011;51335;51.148;6.950;2023-12-20T01:59:13;19.00;;;10.13;;
64857;SDS011;51335;51.148;6.950;2023-12-20T01:59:44;19.70;;;9.98;;
64857;SDS011;51335;51.148;6.950;2023-12-20T02:00:14;19.08;;;9.73;;
64857;SDS011;51335;51.148;6.950;2023-12-20T02:00:45;17.58;;;9.63;;
64857;SDS011;51335;51.148;6.950;2023-12-20T02:01:16;17.90;;;10.00;;
64857;SDS011;51335;51.148;6.950;2023-12-20T02:01:46;15.60;;;9.57;;
64857;SDS011;51335;51.148;6.950;2023-12-20T02:02:16;16.65;;;9.68;;
64857;SDS011;51335;51.148;6.950;2023-12-20T02:02:47;17.13;;;10.05;;
64857;SDS011;51335;51.148;6.950;2023-12-20T02:03:17;20.17;;;10.57;;
64857;SDS011;51335;51.148;6.950;2023-12-20T02:03:48;15.85;;;9.90;;
64857;SDS011;51335;51.148;6.950;2023-12-20T02:04:19;20.88;;;10.80;;
64857;SDS011;51335;51.148;6.950;2023-12-20T02:04:50;19.98;;;10.73;;
64857;SDS011;51335;51.148;6.950;2023-12-20T02:05:20;20.30;;;10.73;;
64857;SDS011;51335;51.148;6.950;2023-12-20T02:05:51;14.45;;;9.57;;
64857;SDS011;51335;51.148;6.950;2023-12-20T02:06:23;17.90;;;10.32;;
64857;SDS011;51335;51.148;6.950;2023-12-20T02:06:54;20.35;;;10.80;;
64857;SDS011;51335;51.148;6.950;2023-12-20T02:07:25;17.17;;;10.32;;
64857;SDS011;51335;51.148;6.950;2023-12-20T02:07:57;20.13;;;10.40;;
64857;SDS011;51335;51.148;6.950;2023-12-20T02:08:27;18.90;;;10.23;;
64857;SDS011;51335;51.148;6.950;2023-12-20T02:08:58;21.45;;;10.10;;
64857;SDS011;51335;51.148;6.950;2023-12-20T02:09:28;19.05;;;11.07;;
64857;SDS011;51335;51.148;6.950;2023-12-20T02:09:59;22.20;;;10.43;;
64857;SDS011;51335;51.148;6.950;2023-12-20T02:10:29;18.25;;;9.93;;
64857;SDS011;51335;51.148;6.950;2023-12-20T02:10:59;19.98;;;10.85;;
64857;SDS011;51335;51.148;6.950;2023-12-20T02:11:30;22.88;;;11.18;;
64857;SDS011;51335;51.148;6.950;2023-12-20T02:12:00;19.00;;;10.02;;
64857;SDS011;51335;51.148;6.950;2023-12-20T02:12:31;17.23;;;9.75;;
64857;SDS011;51335;51.148;6.950;2023-12-20T02:13:01;23.15;;;10.68;;
64857;SDS011;51335;51.148;6.950;2023-12-20T02:13:31;21.08;;;10.82;;
64857;SDS011;51335;51.148;6.950;2023-12-20T02:14:01;17.95;;;10.27;;
64857;SDS011;51335;51.148;6.950;2023-12-20T02:14:32;22.10;;;9.95;;
64857;SDS011;51335;51.148;6.950;2023-12-20T02:15:02;25.27;;;10.60;;
64857;SDS011;51335;51.148;6.950;2023-12-20T02:15:33;17.60;;;10.27;;
64857;SDS011;51335;51.148;6.950;2023-12-20T02:16:03;18.77;;;9.98;;
64857;SDS011;51335;51.148;6.950;2023-12-20T02:16:33;29.98;;;10.20;;
64857;SDS011;51335;51.148;6.950;2023-12-20T02:17:04;23.98;;;10.25;;
64857;SDS011;51335;51.148;6.950;2023-12-20T02:17:34;18.40;;;10.80;;
64857;SDS011;51335;51.148;6.950;2023-12-20T02:18:06;19.08;;;10.45;;
64857;SDS011;51335;51.148;6.950;2023-12-20T02:18:36;16.52;;;9.55;;
64857;SDS011;51335;51.148;6.950;2023-12-20T02:19:08;18.65;;;9.38;;
64857;SDS011;51335;51.148;6.950;2023-12-20T02:19:43;16.75;;;8.73;;
64857;SDS011;51335;51.148;6.950;2023-12-20T02:20:14;19.42;;;8.90;;
64857;SDS011;51335;51.148;6.950;2023-12-20T02:20:44;18.75;;;9.18;;
64857;SDS011;51335;51.148;6.950;2023-12-20T02:21:14;20.05;;;9.82;;
64857;SDS011;51335;51.148;6.950;2023-12-20T02:21:45;16.30;;;8.70;;
64857;SDS011;51335;51.148;6.950;2023-12-20T02:22:15;17.73;;;9.48;;
64857;SDS011;51335;51.148;6.950;2023-12-20T02:22:45;17.30;;;8.45;;
64857;SDS011;51335;51.148;6.950;2023-12-20T02:23:15;25.92;;;8.93;;
64857;SDS011;51335;51.148;6.950;2023-12-20T02:23:46;22.15;;;9.13;;
64857;SDS011;51335;51.148;6.950;2023-12-20T02:24:16;20.23;;;9.48;;
64857;SDS011;51335;51.148;6.950;2023-12-20T02:24:46;24.73;;;8.98;;
64857;SDS011;51335;51.148;6.950;2023-12-20T02:25:16;19.67;;;8.55;;
64857;SDS011;51335;51.148;6.950;2023-12-20T02:25:47;16.52;;;8.90;;
64857;SDS011;51335;51.148;6.950;2023-12-20T02:26:17;19.92;;;8.65;;
64857;SDS011;51335;51.148;6.950;2023-12-20T02:26:47;17.73;;;8.85;;
64857;SDS011;51335;51.148;6.950;2023-12-20T02:27:18;21.95;;;8.63;;
64857;SDS011;51335;51.148;6.950;2023-12-20T02:27:49;18.20;;;8.60;;
64857;SDS011;51335;51.148;6.950;2023-12-20T02:28:20;22.75;;;8.98;;
64857;SDS011;51335;51.148;6.950;2023-12-20T02:28:51;16.95;;;8.27;;
64857;SDS011;51335;51.148;6.950;2023-12-20T02:29:22;20.52;;;8.68;;
64857;SDS011;51335;51.148;6.950;2023-12-20T02:29:52;20.42;;;7.90;;
64857;SDS011;51335;51.148;6.950;2023-12-20T02:30:22;18.60;;;8.50;;
64857;SDS011;51335;51.148;6.950;2023-12-20T02:30:53;26.05;;;8.90;;
64857;SDS011;51335;51.148;6.950;2023-12-20T02:31:23;17.15;;;7.82;;
64857;SDS011;51335;51.148;6.950;2023-12-20T02:31:53;17.00;;;8.05;;
64857;SDS011;51335;51.148;6.950;2023-12-20T02:32:24;22.80;;;8.27;;
64857;SDS011;51335;51.148;6.950;2023-12-20T02:32:54;19.73;;;8.23;;
64857;SDS011;51335;51.148;6.950;2023-12-20T02:33:25;20.70;;;8.00;;
64857;SDS011;51335;51.148;6.950;2023-12-20T02:33:55;17.20;;;7.35;;
64857;SDS011;51335;51.148;6.950;2023-12-20T02:34:26;18.70;;;7.68;;
64857;SDS011;51335;51.148;6.950;2023-12-20T02:34:57;18.90;;;7.25;;
64857;SDS011;51335;51.148;6.950;2023-12-20T02:35:28;21.60;;;8.43;;
64857;SDS011;51335;51.148;6.950;2023-12-20T02:35:58;17.20;;;7.68;;
64857;SDS011;51335;51.148;6.950;2023-12-20T02:36:28;16.38;;;7.18;;
64857;SDS011;51335;51.148;6.950;2023-12-20T02:36:59;19.17;;;8.40;;
64857;SDS011;51335;51.148;6.950;2023-12-20T02:37:29;16.98;;;7.68;;
64857;SDS011;51335;51.148;6.950;2023-12-20T02:37:59;21.02;;;7.80;;
64857;SDS011;51335;51.148;6.950;2023-12-20T02:38:29;20.58;;;8.13;;
64857;SDS011;51335;51.148;6.950;2023-12-20T02:39:00;23.52;;;7.85;;
64857;SDS011;51335;51.148;6.950;2023-12-20T02:39:30;22.90;;;8.00;;
64857;SDS011;51335;51.148;6.950;2023-12-20T02:40:00;19.38;;;7.65;;
64857;SDS011;51335;51.148;6.950;2023-12-20T02:40:30;21.05;;;7.57;;
64857;SDS011;51335;51.148;6.950;2023-12-20T02:41:01;16.05;;;7.30;;
64857;SDS011;51335;51.148;6.950;2023-12-20T02:41:31;17.42;;;7.93;;
64857;SDS011;51335;51.148;6.950;2023-12-20T02:42:02;20.95;;;7.65;;
64857;SDS011;51335;51.148;6.950;2023-12-20T02:42:32;19.88;;;7.13;;
64857;SDS011;51335;51.148;6.950;2023-12-20T02:43:02;18.85;;;7.30;;
64857;SDS011;51335;51.148;6.950;2023-12-20T02:43:33;18.10;;;7.93;;
64857;SDS011;51335;51.148;6.950;2023-12-20T02:44:03;18.00;;;7.35;;
64857;SDS011;51335;51.148;6.950;2023-12-20T02:44:33;18.73;;;7.97;;
64857;SDS011;51335;51.148;6.950;2023-12-20T02:45:04;17.50;;;7.38;;
64857;SDS011;51335;51.148;6.950;2023-12-20T02:45:34;19.80;;;7.90;;
64857;SDS011;51335;51.148;6.950;2023-12-20T02:46:05;18.38;;;6.88;;
64857;SDS011;51335;51.148;6.950;2023-12-20T02:46:35;14.02;;;7.28;;
64857;SDS011;51335;51.148;6.950;2023-12-20T02:47:05;22.48;;;7.03;;
64857;SDS011;51335;51.148;6.950;2023-12-20T02:47:36;20.73;;;7.68;;
64857;SDS011;51335;51.148;6.950;2023-12-20T02:48:06;23.23;;;7.53;;
64857;SDS011;51335;51.148;6.950;2023-12-20T02:48:36;22.23;;;7.28;;
64857;SDS011;51335;51.148;6.950;2023-12-20T02:49:07;17.00;;;7.63;;
64857;SDS011;51335;51.148;6.950;2023-12-20T02:49:37;16.98;;;7.22;;
64857;SDS011;51335;51.148;6.950;2023-12-20T02:50:07;25.33;;;6.93;;
64857;SDS011;51335;51.148;6.950;2023-12-20T02:50:38;17.88;;;6.50;;
64857;SDS011;51335;51.148;6.950;2023-12-20T02:51:08;18.65;;;6.80;;
64857;SDS011;51335;51.148;6.950;2023-12-20T02:51:39;15.20;;;6.63;;
64857;SDS011;51335;51.148;6.950;2023-12-20T02:52:09;17.40;;;7.03;;
64857;SDS011;51335;51.148;6.950;2023-12-20T02:52:39;18.00;;;7.03;;
64857;SDS011;51335;51.148;6.950;2023-12-20T02:53:09;25.17;;;6.85;;
64857;SDS011;51335;51.148;6.950;2023-12-20T02:53:40;20.85;;;6.85;;
64857;SDS011;51335;51.148;6.950;2023-12-20T02:54:10;17.17;;;6.47;;
64857;SDS011;51335;51.148;6.950;2023-12-20T02:54:40;20.52;;;6.63;;
64857;SDS011;51335;51.148;6.950;2023-12-20T02:55:10;22.92;;;6.78;;
64857;SDS011;51335;51.148;6.950;2023-12-20T02:55:41;16.52;;;6.53;;
64857;SDS011;51335;51.148;6.950;2023-12-20T02:56:11;16.60;;;6.38;;
64857;SDS011;51335;51.148;6.950;2023-12-20T02:56:41;19.67;;;6.18;;
64857;SDS011;51335;51.148;6.950;2023-12-20T02:57:12;22.17;;;6.07;;
64857;SDS011;51335;51.148;6.950;2023-12-20T02:57:42;15.10;;;5.95;;
64857;SDS011;51335;51.148;6.950;2023-12-20T02:58:12;19.13;;;6.43;;
64857;SDS011;51335;51.148;6.950;2023-12-20T02:58:42;16.92;;;6.10;;
64857;SDS011;51335;51.148;6.950;2023-12-20T02:59:13;21.98;;;6.35;;
64857;SDS011;51335;51.148;6.950;2023-12-20T02:59:43;18.48;;;5.88;;
64857;SDS011;51335;51.148;6.950;2023-12-20T03:00:13;18.55;;;5.93;;
64857;SDS011;51335;51.148;6.950;2023-12-20T03:00:44;19.05;;;6.25;;